Time;durP1;ratioP1;P1;durP2;ratioP2;P2;SDS_P1;SDS_P2;PMS_P1;PMS_P2;Temp;Humidity;BMP_temperature;BMP_pressure;BME280_temperature;BME280_humidity;BME280_pressure;Samples;Min_cycle;Max_cycle;Signal;HPM_P1;HPM_P2
2024/01/17 00:02:15;;;;;;;26.10;14.80;;;;;;;3.06;63.73;99484.59;4996238;28;20630;-64
2024/01/17 00:04:54;;;;;;;30.33;14.55;;;;;;;2.97;63.70;99491.78;5013328;28;20054;-63
2024/01/17 00:07:21;;;;;;;25.63;14.63;;;;;;;2.46;65.24;99490.03;5029380;28;20052;-63
2024/01/17 00:09:48;;;;;;;26.70;14.77;;;;;;;2.58;65.21;99477.63;5024220;28;20061;-63
2024/01/17 00:12:16;;;;;;;27.48;14.77;;;;;;;2.98;64.23;99474.38;5010333;28;20069;-64
2024/01/17 00:14:43;;;;;;;29.60;14.90;;;;;;;3.07;64.05;99467.16;5027388;28;20057;-63
2024/01/17 00:17:12;;;;;;;25.08;14.32;;;;;;;3.00;64.24;99463.22;5030544;28;20568;-63
2024/01/17 00:19:39;;;;;;;25.90;15.35;;;;;;;2.65;65.17;99456.34;5030598;28;20053;-63
2024/01/17 00:22:07;;;;;;;25.50;14.35;;;;;;;2.92;65.42;99456.50;5030688;28;20064;-64
2024/01/17 00:24:43;;;;;;;29.15;15.77;;;;;;;2.89;64.84;99450.84;5027503;28;20531;-63
2024/01/17 00:27:13;;;;;;;28.75;14.63;;;;;;;2.69;66.17;99434.81;5026396;28;20052;-64
2024/01/17 00:29:43;;;;;;;26.40;14.73;;;;;;;2.81;65.84;99430.56;5031803;28;20057;-64
2024/01/17 00:32:11;;;;;;;25.35;14.88;;;;;;;2.79;66.12;99430.03;5026300;28;20129;-62
2024/01/17 00:34:39;;;;;;;28.65;15.35;;;;;;;2.41;67.35;99422.97;5028532;28;20072;-63
2024/01/17 00:37:07;;;;;;;26.67;14.35;;;;;;;2.39;67.62;99421.66;5016391;28;20060;-63
2024/01/17 00:39:34;;;;;;;28.27;16.00;;;;;;;2.60;67.80;99409.41;5009232;28;20046;-64
2024/01/17 00:42:06;;;;;;;28.38;16.23;;;;;;;2.72;67.75;99407.84;5023153;28;20057;-64
2024/01/17 00:44:33;;;;;;;24.70;13.90;;;;;;;2.65;68.45;99396.53;5027330;28;20058;-64
2024/01/17 00:47:00;;;;;;;26.88;15.45;;;;;;;2.71;68.12;99400.00;5014468;28;20050;-63
2024/01/17 00:49:28;;;;;;;26.63;14.77;;;;;;;2.46;69.35;99393.00;5024167;28;20742;-63
2024/01/17 00:51:55;;;;;;;25.92;15.45;;;;;;;2.48;70.00;99393.53;5020011;28;20060;-63
2024/01/17 00:54:22;;;;;;;29.50;15.85;;;;;;;2.65;69.94;99384.88;5045459;28;20057;-63
2024/01/17 00:56:49;;;;;;;29.75;15.38;;;;;;;2.56;70.02;99386.63;5048883;28;20629;-63
2024/01/17 00:59:17;;;;;;;28.88;15.80;;;;;;;2.40;71.21;99375.16;5048545;28;20110;-63
2024/01/17 01:01:44;;;;;;;29.50;16.02;;;;;;;2.51;72.07;99368.47;5047841;28;20278;-64
2024/01/17 01:04:11;;;;;;;28.63;16.20;;;;;;;2.46;71.74;99367.75;5048031;28;20511;-63
2024/01/17 01:06:38;;;;;;;30.08;16.33;;;;;;;2.40;72.25;99355.34;5048011;28;20702;-63
2024/01/17 01:09:06;;;;;;;30.67;16.55;;;;;;;2.50;72.48;99347.03;5048031;28;20510;-63
2024/01/17 01:11:33;;;;;;;27.70;15.77;;;;;;;2.39;73.46;99343.66;5029929;28;20053;-63
2024/01/17 01:14:01;;;;;;;27.30;15.43;;;;;;;2.68;72.90;99328.00;5042335;28;20056;-63
2024/01/17 01:16:28;;;;;;;27.90;15.82;;;;;;;2.47;73.65;99326.69;5028090;28;20057;-62
2024/01/17 01:18:55;;;;;;;26.52;15.80;;;;;;;2.45;74.29;99325.38;5027102;28;20067;-63
2024/01/17 01:21:23;;;;;;;27.40;15.73;;;;;;;2.81;73.82;99307.41;5028330;28;20080;-64
2024/01/17 01:23:50;;;;;;;30.40;16.30;;;;;;;2.67;73.51;99295.69;5027976;28;20060;-63
2024/01/17 01:26:18;;;;;;;29.38;16.40;;;;;;;2.33;75.02;99297.84;5036696;28;20662;-63
2024/01/17 01:28:45;;;;;;;30.20;16.60;;;;;;;2.55;75.03;99284.44;5047538;28;20055;-63
2024/01/17 01:31:12;;;;;;;29.00;16.38;;;;;;;2.59;74.83;99275.41;5036038;28;20499;-62
2024/01/17 01:33:39;;;;;;;29.73;17.52;;;;;;;2.57;74.98;99266.75;5027911;28;20049;-63
2024/01/17 01:36:07;;;;;;;26.25;16.25;;;;;;;2.97;74.36;99260.63;5027740;28;20058;-63
2024/01/17 01:38:34;;;;;;;30.60;16.40;;;;;;;2.73;74.21;99259.97;5027736;28;20050;-64
2024/01/17 01:41:02;;;;;;;28.10;16.75;;;;;;;2.54;75.53;99242.91;5027524;28;20049;-63
2024/01/17 01:43:29;;;;;;;29.80;17.00;;;;;;;2.36;76.66;99245.63;5026176;28;20061;-63
2024/01/17 01:46:16;;;;;;;30.52;17.33;;;;;;;2.32;77.87;99242.69;5026476;28;20053;-63
2024/01/17 01:48:44;;;;;;;28.35;16.67;;;;;;;2.41;78.53;99234.69;5027888;28;20060;-63
2024/01/17 01:51:12;;;;;;;30.45;17.85;;;;;;;2.35;78.47;99233.16;5027609;28;20049;-63
2024/01/17 01:53:42;;;;;;;35.65;18.02;;;;;;;2.91;77.31;99223.75;5027210;28;20065;-63
2024/01/17 01:56:11;;;;;;;30.70;17.30;;;;;;;2.71;77.36;99210.53;5027809;28;20049;-64
2024/01/17 01:58:43;;;;;;;28.45;17.20;;;;;;;2.43;78.80;99211.53;5025539;28;20425;-63
2024/01/17 02:01:11;;;;;;;32.17;17.27;;;;;;;2.53;79.49;99208.66;5025996;28;20057;-63
2024/01/17 02:03:40;;;;;;;32.95;17.77;;;;;;;2.57;78.83;99198.81;5027744;28;20045;-63
2024/01/17 02:06:07;;;;;;;27.80;16.33;;;;;;;2.50;79.69;99184.78;5026275;28;20048;-64
2024/01/17 02:08:35;;;;;;;28.55;16.95;;;;;;;2.63;79.85;99180.50;5027615;28;20045;-63
2024/01/17 02:11:02;;;;;;;29.85;17.15;;;;;;;2.25;80.63;99175.16;5026072;28;20060;-62
2024/01/17 02:13:33;;;;;;;30.23;16.88;;;;;;;2.44;81.35;99164.22;5026810;28;20668;-63
2024/01/17 02:16:00;;;;;;;31.58;17.65;;;;;;;2.41;81.52;99150.47;5027167;28;20045;-64
2024/01/17 02:18:27;;;;;;;31.92;17.23;;;;;;;2.50;81.79;99145.94;5026900;28;20045;-63
2024/01/17 02:20:55;;;;;;;29.92;17.55;;;;;;;2.60;81.84;99140.34;5007962;28;20456;-63
2024/01/17 02:23:23;;;;;;;34.38;17.10;;;;;;;2.73;82.04;99126.75;5026730;28;20064;-63
2024/01/17 02:25:54;;;;;;;32.58;17.25;;;;;;;2.89;81.21;99122.66;5027083;28;20084;-63
2024/01/17 02:28:22;;;;;;;30.42;17.60;;;;;;;2.86;81.34;99111.56;5026914;28;20053;-63
2024/01/17 02:30:49;;;;;;;34.72;16.92;;;;;;;2.99;80.84;99108.84;5027277;28;20064;-62
2024/01/17 02:33:18;;;;;;;30.80;17.83;;;;;;;2.93;81.59;99104.59;5020760;28;20747;-63
2024/01/17 02:35:45;;;;;;;33.55;17.63;;;;;;;2.92;81.55;99104.91;5024845;28;20067;-62
2024/01/17 02:38:12;;;;;;;31.42;17.50;;;;;;;2.82;82.27;99096.97;4992390;28;20049;-63
2024/01/17 02:40:40;;;;;;;31.35;17.70;;;;;;;2.96;82.12;99104.03;5027353;28;20726;-63
2024/01/17 02:43:07;;;;;;;32.97;17.80;;;;;;;2.65;83.10;99096.75;5025523;28;20057;-63
2024/01/17 02:45:34;;;;;;;37.33;18.83;;;;;;;2.69;83.41;99093.13;5026386;28;20068;-63
2024/01/17 02:48:02;;;;;;;33.22;18.33;;;;;;;2.98;83.20;99093.63;5021777;28;20050;-62
2024/01/17 02:50:31;;;;;;;29.92;18.10;;;;;;;2.70;84.08;99083.06;5005264;28;20058;-64
2024/01/17 02:52:58;;;;;;;36.00;18.90;;;;;;;2.65;84.83;99075.00;5024952;28;20057;-65
2024/01/17 02:55:26;;;;;;;29.65;17.33;;;;;;;2.54;85.23;99073.59;5026268;28;20534;-63
2024/01/17 02:57:53;;;;;;;36.22;19.25;;;;;;;2.46;86.40;99071.59;5026745;28;20053;-63
2024/01/17 03:00:21;;;;;;;36.45;19.08;;;;;;;2.66;85.96;99065.75;5026292;28;20053;-63
2024/01/17 03:02:49;;;;;;;33.60;19.17;;;;;;;2.57;85.69;99065.66;5034469;28;20060;-63
2024/01/17 03:05:17;;;;;;;33.95;18.60;;;;;;;2.65;85.54;99047.84;5046429;28;20067;-63
2024/01/17 03:07:44;;;;;;;31.00;18.42;;;;;;;2.71;85.78;99050.13;5012066;28;20073;-63
2024/01/17 03:10:12;;;;;;;33.90;18.80;;;;;;;2.62;86.25;99043.78;5007384;28;20058;-63
2024/01/17 03:12:40;;;;;;;35.50;19.60;;;;;;;2.60;86.57;99034.34;5005410;28;20053;-62
2024/01/17 03:15:11;;;;;;;34.88;20.23;;;;;;;2.70;86.86;99031.41;5022843;28;20053;-62
2024/01/17 03:17:39;;;;;;;32.97;20.02;;;;;;;2.79;87.23;99026.88;5026288;28;20099;-62
2024/01/17 03:20:10;;;;;;;37.35;19.65;;;;;;;2.63;87.54;99029.13;5026137;28;20052;-63
2024/01/17 03:22:38;;;;;;;35.45;20.15;;;;;;;2.58;87.53;99025.69;5024683;28;20061;-63
2024/01/17 03:25:07;;;;;;;34.42;18.80;;;;;;;2.53;88.00;99015.72;5026435;28;20050;-65
2024/01/17 03:27:35;;;;;;;33.17;18.75;;;;;;;2.84;87.83;98999.59;5045007;28;20061;-64
2024/01/17 03:30:04;;;;;;;30.40;19.25;;;;;;;2.56;88.41;98987.13;5046029;28;20056;-64
2024/01/17 03:32:31;;;;;;;35.53;19.80;;;;;;;2.70;88.03;98979.78;5018103;28;20065;-63
2024/01/17 03:34:59;;;;;;;36.47;19.95;;;;;;;2.63;88.50;98971.22;5006153;28;20773;-63
2024/01/17 03:37:27;;;;;;;35.85;20.58;;;;;;;2.76;88.24;98965.75;5020564;28;20053;-63
2024/01/17 03:39:54;;;;;;;39.40;20.35;;;;;;;2.82;88.32;98948.25;5024605;28;20068;-63
2024/01/17 03:42:21;;;;;;;37.05;20.73;;;;;;;2.91;88.60;98953.75;5011966;28;20588;-63
2024/01/17 03:44:48;;;;;;;35.65;19.38;;;;;;;3.00;87.97;98941.84;5004978;28;20064;-62
2024/01/17 03:47:16;;;;;;;35.22;20.05;;;;;;;3.15;87.53;98944.22;5008700;28;20046;-63
2024/01/17 03:49:43;;;;;;;36.85;19.08;;;;;;;3.39;87.09;98933.03;5010148;28;20050;-62
2024/01/17 03:52:11;;;;;;;36.50;18.08;;;;;;;3.37;85.88;98918.91;5016256;28;20045;-63
2024/01/17 03:54:38;;;;;;;29.65;17.58;;;;;;;3.37;85.66;98908.84;5011113;28;20050;-67
2024/01/17 03:57:05;;;;;;;33.35;18.50;;;;;;;3.37;86.12;98897.16;5009653;28;20060;-64
2024/01/17 03:59:33;;;;;;;32.60;20.15;;;;;;;3.22;86.23;98889.38;5009609;28;20054;-64
2024/01/17 04:02:00;;;;;;;30.45;17.75;;;;;;;3.11;87.70;98879.84;5009955;28;20056;-63
2024/01/17 04:04:27;;;;;;;31.05;17.58;;;;;;;3.14;87.93;98871.06;5008679;28;20056;-63
2024/01/17 04:06:55;;;;;;;34.22;17.35;;;;;;;3.06;87.67;98875.34;5010352;28;20054;-62
2024/01/17 04:09:23;;;;;;;25.95;16.90;;;;;;;2.99;88.28;98866.00;5009509;28;20050;-63
2024/01/17 04:11:52;;;;;;;33.85;17.52;;;;;;;3.13;87.96;98856.69;4988227;28;20061;-63
2024/01/17 04:14:19;;;;;;;31.58;17.92;;;;;;;3.44;87.69;98845.81;4996434;28;20054;-62
2024/01/17 04:16:46;;;;;;;24.63;16.65;;;;;;;3.27;86.77;98843.00;5009744;28;20067;-63
2024/01/17 04:19:13;;;;;;;29.83;18.02;;;;;;;3.39;87.43;98826.91;5008131;28;20053;-63
2024/01/17 04:21:41;;;;;;;30.35;18.25;;;;;;;2.94;88.40;98826.16;4990505;28;20081;-64
2024/01/17 04:24:08;;;;;;;31.75;17.33;;;;;;;3.08;89.09;98818.72;4989310;28;20057;-62
2024/01/17 04:26:35;;;;;;;28.95;17.08;;;;;;;3.17;89.25;98805.97;5011763;28;20060;-63
2024/01/17 04:29:03;;;;;;;30.67;17.88;;;;;;;3.31;89.15;98797.72;5028888;28;20057;-63
2024/01/17 04:31:31;;;;;;;27.10;16.13;;;;;;;3.26;89.04;98787.00;5040996;28;20067;-64
2024/01/17 04:34:02;;;;;;;30.00;17.45;;;;;;;3.11;89.68;98785.47;5039658;28;20440;-62
2024/01/17 04:36:30;;;;;;;29.27;18.25;;;;;;;3.00;90.51;98773.22;5029237;28;20057;-64
2024/01/17 04:38:58;;;;;;;30.77;17.63;;;;;;;3.02;91.14;98760.13;5028757;28;20049;-61
2024/01/17 04:41:25;;;;;;;31.63;18.58;;;;;;;3.10;91.36;98753.91;5029612;28;20559;-61
2024/01/17 04:43:53;;;;;;;32.22;17.63;;;;;;;3.26;90.92;98749.69;5029405;28;20049;-64
2024/01/17 04:46:20;;;;;;;28.83;18.23;;;;;;;3.20;90.58;98744.69;5029511;28;20072;-61
2024/01/17 04:48:47;;;;;;;27.83;18.05;;;;;;;3.08;91.87;98734.41;5029185;28;20053;-62
2024/01/17 04:51:15;;;;;;;35.55;18.83;;;;;;;3.11;92.28;98719.38;5029060;28;20053;-61
2024/01/17 04:53:43;;;;;;;34.35;18.83;;;;;;;3.34;92.72;98704.59;5034489;28;20057;-60
2024/01/17 04:56:14;;;;;;;31.95;18.15;;;;;;;3.40;91.96;98703.31;5043370;28;20067;-61
2024/01/17 04:58:43;;;;;;;36.95;19.88;;;;;;;3.53;90.71;98696.97;5042527;28;20048;-60
2024/01/17 05:01:10;;;;;;;39.93;19.33;;;;;;;3.59;91.12;98693.00;5028367;28;20068;-60
2024/01/17 05:03:42;;;;;;;30.85;18.20;;;;;;;3.77;90.46;98694.59;5028857;28;20629;-61
2024/01/17 05:06:09;;;;;;;31.05;19.08;;;;;;;3.43;90.94;98706.22;5026652;28;20145;-62
2024/01/17 05:08:37;;;;;;;31.58;18.25;;;;;;;3.52;91.58;98705.44;5028576;28;20037;-60
2024/01/17 05:11:04;;;;;;;39.08;18.15;;;;;;;3.50;91.58;98708.50;5028030;28;20060;-62
2024/01/17 05:13:32;;;;;;;33.47;18.00;;;;;;;3.40;91.99;98700.59;5028763;28;20068;-62
2024/01/17 05:15:59;;;;;;;28.95;18.08;;;;;;;3.66;91.54;98698.75;5007492;28;20061;-61
2024/01/17 05:18:27;;;;;;;27.35;16.90;;;;;;;3.68;91.53;98684.84;5008394;28;20052;-62
2024/01/17 05:20:55;;;;;;;29.02;16.75;;;;;;;3.86;90.83;98686.44;5022133;28;20702;-62
2024/01/17 05:23:22;;;;;;;27.77;15.80;;;;;;;3.68;90.46;98685.63;5028606;28;20061;-61
2024/01/17 05:25:50;;;;;;;25.60;15.85;;;;;;;3.52;91.08;98689.94;5027160;28;20060;-61
2024/01/17 05:28:17;;;;;;;26.08;15.50;;;;;;;3.71;91.27;98679.56;5028461;28;20057;-62
2024/01/17 05:30:45;;;;;;;26.02;15.05;;;;;;;3.97;90.24;98668.69;5027720;28;20050;-60
2024/01/17 05:33:12;;;;;;;24.92;14.32;;;;;;;4.06;88.82;98666.78;5026345;28;20061;-62
2024/01/17 05:35:40;;;;;;;28.45;15.10;;;;;;;3.89;89.04;98650.44;5025875;28;20511;-61
2024/01/17 05:38:07;;;;;;;26.55;15.25;;;;;;;3.42;90.72;98643.94;5028707;28;20053;-61
2024/01/17 05:40:35;;;;;;;24.83;14.73;;;;;;;3.23;92.78;98640.69;5026548;28;20057;-60
2024/01/17 05:43:03;;;;;;;26.77;15.32;;;;;;;3.22;93.18;98641.81;5027686;28;20056;-61
2024/01/17 05:45:30;;;;;;;23.75;15.05;;;;;;;3.30;93.67;98630.16;5026570;28;20061;-62
2024/01/17 05:47:58;;;;;;;23.90;15.57;;;;;;;3.37;93.77;98631.31;5028303;28;20053;-61
2024/01/17 05:50:26;;;;;;;23.88;15.80;;;;;;;3.41;93.87;98615.97;5026082;28;20045;-62
2024/01/17 05:52:53;;;;;;;25.42;14.73;;;;;;;3.35;94.14;98603.59;5028703;28;20051;-62
2024/01/17 05:55:22;;;;;;;22.55;14.93;;;;;;;3.57;93.62;98596.44;5038674;28;20058;-61
2024/01/17 05:57:50;;;;;;;23.77;15.18;;;;;;;3.37;94.11;98592.41;5027864;28;20053;-60
2024/01/17 06:00:21;;;;;;;25.80;14.80;;;;;;;3.32;94.45;98589.84;5025331;28;20056;-62
2024/01/17 06:02:48;;;;;;;28.42;15.57;;;;;;;3.24;95.44;98571.59;5027637;28;20069;-60
2024/01/17 06:05:18;;;;;;;24.77;15.35;;;;;;;3.65;95.20;98568.41;5025408;28;20057;-61
2024/01/17 06:07:45;;;;;;;23.75;15.55;;;;;;;3.55;94.73;98560.56;5027046;28;20061;-61
2024/01/17 06:10:13;;;;;;;29.02;15.25;;;;;;;3.69;94.90;98551.13;5019012;28;20046;-61
2024/01/17 06:12:42;;;;;;;27.67;15.20;;;;;;;3.80;94.64;98546.16;5007629;28;20662;-60
2024/01/17 06:15:11;;;;;;;32.42;15.73;;;;;;;3.79;94.04;98530.94;5020696;28;20060;-61
2024/01/17 06:17:38;;;;;;;26.45;14.98;;;;;;;3.82;94.17;98522.91;5014701;28;20069;-62
2024/01/17 06:20:09;;;;;;;29.05;15.65;;;;;;;4.07;93.34;98513.91;5021197;28;20053;-61
2024/01/17 06:22:37;;;;;;;27.33;15.57;;;;;;;4.21;92.84;98509.06;5015054;28;20057;-61
2024/01/17 06:25:08;;;;;;;22.35;14.52;;;;;;;4.18;92.05;98501.53;5021198;28;20062;-62
2024/01/17 06:27:35;;;;;;;27.02;15.63;;;;;;;4.11;92.95;98490.34;5010859;28;20057;-62
2024/01/17 06:30:03;;;;;;;27.13;15.27;;;;;;;4.13;92.71;98487.28;5006595;28;20054;-62
2024/01/17 06:32:44;;;;;;;27.70;15.20;;;;;;;4.17;92.95;98478.13;5006044;28;20061;-62
2024/01/17 06:38:29;;;;;;;23.77;14.35;;;;;;;4.16;92.00;98462.94;5008336;28;20057;-61
2024/01/17 06:40:56;;;;;;;25.60;14.90;;;;;;;4.27;92.39;98464.16;5012988;28;20050;-62
2024/01/17 06:43:23;;;;;;;28.40;14.57;;;;;;;4.55;91.58;98450.88;5005006;28;20053;-60
2024/01/17 06:45:50;;;;;;;22.25;13.73;;;;;;;4.47;90.70;98449.81;5024264;28;20166;-61
2024/01/17 06:48:19;;;;;;;25.80;13.60;;;;;;;4.28;91.67;98440.44;5026590;28;20065;-62
2024/01/17 06:50:47;;;;;;;20.58;13.93;;;;;;;4.40;92.19;98432.34;5026236;28;20072;-63
2024/01/17 06:53:17;;;;;;;22.40;14.45;;;;;;;4.35;92.13;98427.91;5033774;28;20510;-62
2024/01/17 06:55:44;;;;;;;27.75;16.90;;;;;;;4.38;91.67;98419.06;5046881;28;20049;-61
2024/01/17 06:58:12;;;;;;;19.60;12.90;;;;;;;4.25;92.13;98424.75;5044556;28;20048;-61
2024/01/17 07:00:39;;;;;;;20.92;12.93;;;;;;;4.27;92.47;98425.22;5027305;28;20064;-62
2024/01/17 07:03:07;;;;;;;17.73;12.07;;;;;;;4.21;92.81;98429.25;5026434;28;20053;-63
2024/01/17 07:05:34;;;;;;;19.05;12.13;;;;;;;4.26;92.75;98427.13;5009036;28;20058;-62
2024/01/17 07:08:02;;;;;;;21.27;12.13;;;;;;;4.24;92.91;98432.09;5027785;28;20054;-61
2024/01/17 07:10:30;;;;;;;19.52;10.82;;;;;;;4.59;92.24;98441.72;5025405;28;20057;-60
2024/01/17 07:12:57;;;;;;;20.48;11.32;;;;;;;4.22;92.67;98428.13;5025177;28;20050;-61
2024/01/17 07:15:25;;;;;;;18.75;11.48;;;;;;;3.88;94.14;98418.16;5025043;28;20057;-60
2024/01/17 07:17:54;;;;;;;23.50;13.70;;;;;;;4.10;95.34;98411.66;5027066;28;20065;-63
2024/01/17 07:20:22;;;;;;;21.42;11.50;;;;;;;4.42;94.95;98395.47;5026923;28;20076;-62
2024/01/17 07:22:49;;;;;;;18.85;11.73;;;;;;;4.25;93.93;98370.25;5029808;28;20057;-61
2024/01/17 07:25:16;;;;;;;18.80;12.05;;;;;;;4.20;94.86;98371.22;5031819;28;20045;-63
2024/01/17 07:27:45;;;;;;;16.95;10.82;;;;;;;4.36;94.69;98374.19;5032900;28;20088;-62
2024/01/17 07:30:13;;;;;;;23.30;11.73;;;;;;;4.17;95.55;98371.88;5050834;28;20049;-62
2024/01/17 07:32:41;;;;;;;19.92;11.38;;;;;;;4.16;95.99;98373.03;5050458;28;20057;-62
2024/01/17 07:35:09;;;;;;;17.38;11.93;;;;;;;4.20;96.19;98378.63;5051372;28;20052;-62
2024/01/17 07:37:36;;;;;;;20.52;11.77;;;;;;;4.31;96.41;98368.91;5033116;28;20049;-63
2024/01/17 07:40:04;;;;;;;15.93;10.63;;;;;;;4.77;95.22;98357.88;5032603;28;20050;-61
2024/01/17 07:42:32;;;;;;;16.88;11.02;;;;;;;4.67;94.09;98346.56;5030037;28;20054;-60
2024/01/17 07:44:59;;;;;;;19.92;11.07;;;;;;;4.51;94.00;98332.72;5028408;28;20433;-63
2024/01/17 07:47:26;;;;;;;16.92;10.32;;;;;;;4.35;95.15;98299.81;5027556;28;20057;-62
2024/01/17 07:49:59;;;;;;;13.60;9.25;;;;;;;4.27;95.49;98311.56;5030835;28;20050;-63
2024/01/17 07:52:26;;;;;;;17.38;9.95;;;;;;;4.36;96.37;98309.59;5035632;28;20064;-62
2024/01/17 07:54:53;;;;;;;16.30;9.68;;;;;;;4.51;95.53;98321.84;5027835;28;20551;-61
2024/01/17 07:57:20;;;;;;;23.25;10.57;;;;;;;4.34;96.75;98344.53;5030430;28;20053;-61
2024/01/17 07:59:48;;;;;;;17.80;9.90;;;;;;;4.28;97.14;98340.44;5026623;28;20054;-62
2024/01/17 08:02:17;;;;;;;18.38;10.00;;;;;;;4.30;97.90;98345.53;5039547;28;20094;-62
2024/01/17 08:04:44;;;;;;;16.13;10.68;;;;;;;4.37;98.03;98327.53;5029521;28;20389;-64
2024/01/17 08:07:14;;;;;;;14.18;9.32;;;;;;;4.42;96.71;98323.81;5040051;28;20076;-62
2024/01/17 08:09:43;;;;;;;20.65;13.55;;;;;;;4.22;96.99;98319.16;4998589;28;20045;-62
2024/01/17 08:12:10;;;;;;;15.27;9.68;;;;;;;4.42;96.65;98296.56;5024511;28;20056;-62
2024/01/17 08:14:38;;;;;;;15.68;10.05;;;;;;;4.34;96.92;98294.72;5034098;28;20057;-61
2024/01/17 08:17:05;;;;;;;15.77;10.18;;;;;;;4.56;96.04;98294.38;5027681;28;20057;-61
2024/01/17 08:19:32;;;;;;;14.88;9.23;;;;;;;4.58;97.21;98270.31;5022908;28;20057;-61
2024/01/17 08:21:59;;;;;;;13.75;8.55;;;;;;;4.74;96.13;98251.41;5039221;28;20049;-62
2024/01/17 08:24:27;;;;;;;13.90;8.68;;;;;;;4.71;95.95;98247.41;5027186;28;20060;-62
2024/01/17 08:26:54;;;;;;;13.88;9.30;;;;;;;4.67;95.96;98238.31;5037939;28;20049;-61
2024/01/17 08:29:22;;;;;;;13.73;9.35;;;;;;;4.57;96.89;98235.97;5031973;28;20053;-60
2024/01/17 08:31:50;;;;;;;18.02;10.20;;;;;;;4.65;97.42;98250.69;5036700;28;20060;-59
2024/01/17 08:34:20;;;;;;;18.70;10.27;;;;;;;4.52;97.64;98258.81;5032682;28;20064;-60
2024/01/17 08:36:48;;;;;;;15.63;9.75;;;;;;;4.60;98.37;98232.59;5027747;28;20050;-61
2024/01/17 08:39:16;;;;;;;13.77;8.55;;;;;;;5.01;97.08;98226.25;5020667;28;20065;-59
2024/01/17 08:41:45;;;;;;;14.35;8.43;;;;;;;5.11;95.87;98212.97;5023725;28;20096;-60
2024/01/17 08:44:13;;;;;;;;;;;;;;;4.82;96.24;98206.88;5024757;28;20061;-61
2024/01/17 08:46:44;;;;;;;14.43;8.82;;;;;;;4.75;96.54;98196.53;5022466;28;19932;-61
2024/01/17 08:49:14;;;;;;;14.18;8.90;;;;;;;5.01;96.57;98196.25;5040594;28;20049;-59
2024/01/17 08:51:42;;;;;;;16.33;9.10;;;;;;;5.19;95.89;98193.00;5029935;28;20448;-59
2024/01/17 08:54:10;;;;;;;13.68;8.85;;;;;;;4.74;95.90;98183.22;5035295;28;20053;-60
2024/01/17 08:56:38;;;;;;;15.70;9.35;;;;;;;4.62;97.21;98175.03;5027966;28;20061;-62
2024/01/17 08:59:07;;;;;;;27.10;10.35;;;;;;;4.45;98.79;98181.44;5036943;28;20060;-58
2024/01/17 09:01:52;;;;;;;19.20;8.68;;;;;;;4.64;99.58;98165.34;5029072;28;20045;-64
2024/01/17 09:04:57;;;;;;;11.57;7.30;;;;;;;4.69;99.56;98161.63;5018560;28;20060;-64
2024/01/17 09:07:32;;;;;;;12.32;7.40;;;;;;;4.84;98.86;98180.06;5023186;28;20405;-62
2024/01/17 09:10:21;;;;;;;12.23;7.07;;;;;;;4.52;99.47;98147.06;5027920;28;20049;-62
2024/01/17 09:12:50;;;;;;;12.27;7.70;;;;;;;4.46;99.96;98156.56;5031774;28;20056;-61
2024/01/17 09:15:21;;;;;;;13.02;8.23;;;;;;;4.48;100.00;98150.78;5024430;28;20307;-62
2024/01/17 09:17:51;;;;;;;14.55;8.02;;;;;;;4.55;100.00;98149.09;5027019;28;20061;-61
2024/01/17 09:20:20;;;;;;;13.65;8.20;;;;;;;4.52;100.00;98133.41;5035522;28;20057;-62
2024/01/17 09:22:48;;;;;;;12.48;7.95;;;;;;;4.73;100.00;98132.53;5021740;28;20057;-61
2024/01/17 09:25:24;;;;;;;13.55;7.65;;;;;;;4.87;100.00;98131.09;5035131;28;20065;-61
2024/01/17 09:28:28;;;;;;;13.00;7.78;;;;;;;4.73;100.00;98129.81;5007401;28;20061;-62
2024/01/17 09:30:56;;;;;;;12.77;7.45;;;;;;;4.74;100.00;98112.34;5035320;28;20057;-63
2024/01/17 09:33:24;;;;;;;11.25;7.13;;;;;;;4.63;100.00;98130.25;5028593;28;20041;-62
2024/01/17 09:35:52;;;;;;;11.32;6.88;;;;;;;4.67;100.00;98115.63;5042210;28;20105;-62
2024/01/17 09:38:29;;;;;;;15.13;8.13;;;;;;;4.90;100.00;98110.56;5021092;28;20076;-60
2024/01/17 09:40:57;;;;;;;18.95;8.68;;;;;;;4.90;99.60;98124.97;5038861;28;20045;-64
2024/01/17 09:43:24;;;;;;;17.73;7.70;;;;;;;4.80;100.00;98127.34;5031277;28;20052;-61
2024/01/17 09:45:54;;;;;;;14.80;8.13;;;;;;;4.80;100.00;98116.44;5026142;28;20057;-62
2024/01/17 09:48:21;;;;;;;;;;;;;;;4.82;99.71;98109.50;5030118;28;20583;-60
2024/01/17 09:50:48;;;;;;;17.98;7.70;;;;;;;5.01;100.00;98101.56;5025560;28;19936;-61
2024/01/17 09:53:16;;;;;;;11.63;6.70;;;;;;;5.30;99.62;98104.06;5009611;28;20065;-61
2024/01/17 09:55:45;;;;;;;19.10;10.90;;;;;;;5.28;98.05;98105.56;5021874;28;20046;-64
2024/01/17 09:58:13;;;;;;;19.60;8.82;;;;;;;5.25;98.63;98078.94;5041260;28;20075;-64
2024/01/17 10:00:41;;;;;;;12.82;6.95;;;;;;;5.13;99.66;98096.13;5026829;28;20061;-61
2024/01/17 10:03:10;;;;;;;12.45;7.95;;;;;;;5.08;99.67;98092.81;5025635;28;20061;-62
2024/01/17 10:05:38;;;;;;;14.15;8.35;;;;;;;5.26;100.00;98089.53;5024669;28;20057;-61
2024/01/17 10:08:06;;;;;;;14.57;9.10;;;;;;;5.54;98.83;98079.47;5029178;28;20046;-62
2024/01/17 10:10:33;;;;;;;15.68;9.30;;;;;;;5.50;97.96;98086.75;5023749;28;20060;-62
2024/01/17 10:13:00;;;;;;;15.00;7.25;;;;;;;5.24;98.24;98058.25;5025751;28;20050;-62
2024/01/17 10:15:29;;;;;;;13.15;6.95;;;;;;;5.04;99.82;98064.66;5025958;28;20056;-65
2024/01/17 10:17:56;;;;;;;13.82;7.20;;;;;;;4.98;100.00;98061.34;5018964;28;20058;-61
2024/01/17 10:20:24;;;;;;;12.27;7.28;;;;;;;4.80;100.00;98054.50;5026525;28;20060;-62
2024/01/17 10:22:51;;;;;;;11.93;7.05;;;;;;;5.09;100.00;98045.31;5016369;28;20058;-62
2024/01/17 10:25:18;;;;;;;20.60;8.40;;;;;;;5.15;100.00;98022.09;5024928;28;20563;-61
2024/01/17 10:27:47;;;;;;;14.48;8.60;;;;;;;4.95;100.00;98040.19;5016868;28;20488;-62
2024/01/17 10:30:15;;;;;;;19.45;9.48;;;;;;;4.94;100.00;98003.16;5024491;28;20433;-62
2024/01/17 10:32:43;;;;;;;13.23;8.43;;;;;;;4.93;100.00;98022.59;5022132;28;20049;-63
2024/01/17 10:35:11;;;;;;;13.55;8.38;;;;;;;5.18;100.00;97996.84;5025042;28;20059;-62
2024/01/17 10:37:39;;;;;;;11.70;7.45;;;;;;;5.19;100.00;97996.53;5028117;28;20072;-62
2024/01/17 10:40:09;;;;;;;14.40;8.18;;;;;;;5.12;100.00;97992.78;5033201;28;20056;-61
2024/01/17 10:42:38;;;;;;;15.02;8.70;;;;;;;5.20;100.00;97991.84;5034266;28;20053;-61
2024/01/17 10:45:05;;;;;;;15.52;9.02;;;;;;;4.83;100.00;98002.00;5028144;28;20045;-62
2024/01/17 10:47:33;;;;;;;13.07;8.85;;;;;;;4.92;100.00;97983.59;5030479;28;20049;-63
2024/01/17 10:50:01;;;;;;;14.65;8.70;;;;;;;5.04;100.00;97991.78;5024162;28;20049;-62
2024/01/17 10:52:33;;;;;;;12.73;8.30;;;;;;;5.20;100.00;97984.47;5022033;28;20054;-61
2024/01/17 10:55:04;;;;;;;16.67;8.20;;;;;;;5.29;100.00;97990.59;5022630;28;20056;-63
2024/01/17 10:57:40;;;;;;;13.65;9.23;;;;;;;4.97;100.00;97997.00;5030745;28;20219;-63
2024/01/17 11:00:11;;;;;;;15.18;9.32;;;;;;;4.88;100.00;97979.19;5034923;28;20049;-62
2024/01/17 11:02:40;;;;;;;18.98;9.85;;;;;;;4.52;100.00;97986.25;5036515;28;20739;-62
2024/01/17 11:05:11;;;;;;;15.23;10.30;;;;;;;4.52;100.00;97988.16;5017629;28;20053;-62
2024/01/17 11:07:39;;;;;;;15.48;9.77;;;;;;;4.43;100.00;97979.28;5034574;28;20310;-62
2024/01/17 11:10:08;;;;;;;17.77;10.70;;;;;;;4.76;100.00;97951.94;5024280;28;20167;-63
2024/01/17 11:12:39;;;;;;;19.38;10.88;;;;;;;4.81;100.00;97959.88;5019942;28;20055;-63
2024/01/17 11:15:07;;;;;;;24.75;10.82;;;;;;;5.03;100.00;97979.28;5015989;28;20060;-62
2024/01/17 11:17:36;;;;;;;22.10;12.43;;;;;;;4.95;100.00;97961.09;5017138;28;20049;-62
2024/01/17 11:20:08;;;;;;;;;;;;;;;4.51;100.00;97941.06;5011996;28;20074;-61
2024/01/17 11:22:36;;;;;;;21.25;11.73;;;;;;;4.90;100.00;97927.84;5014557;28;19925;-62
2024/01/17 11:25:29;;;;;;;18.48;11.52;;;;;;;5.08;100.00;97920.94;5026874;28;20053;-62
2024/01/17 11:28:32;;;;;;;17.55;11.68;;;;;;;5.28;100.00;97914.53;5027222;28;20408;-62
2024/01/17 11:31:35;;;;;;;21.15;13.55;;;;;;;5.31;100.00;97911.91;5035961;28;20602;-64
2024/01/17 11:34:13;;;;;;;22.95;12.40;;;;;;;5.40;100.00;97920.75;5018180;28;20053;-62
2024/01/17 11:36:44;;;;;;;26.73;13.23;;;;;;;5.71;100.00;97901.72;5021272;28;20065;-60
2024/01/17 11:39:13;;;;;;;19.83;11.57;;;;;;;5.40;100.00;97909.03;5015935;28;20080;-61